createdAt,value
2023-05-07T00:00:23.015Z,68.01
2023-05-07T00:03:16.791Z,67.98
2023-05-07T00:05:50.878Z,68.06
2023-05-07T00:08:24.885Z,67.93
2023-05-07T00:10:58.881Z,67.97
2023-05-07T00:13:36.783Z,67.96
2023-05-07T00:16:10.972Z,68.09
2023-05-07T00:18:44.319Z,68.18
2023-05-07T00:21:17.926Z,68.09
2023-05-07T00:23:51.759Z,68.28
2023-05-07T00:26:25.280Z,68.47
2023-05-07T00:28:58.874Z,68.60
2023-05-07T00:31:32.512Z,68.40
2023-05-07T00:34:05.845Z,68.22
2023-05-07T00:36:39.427Z,68.08
2023-05-07T00:39:13.039Z,68.10
2023-05-07T00:41:46.316Z,68.08
2023-05-07T00:44:20.567Z,68.19
2023-05-07T00:46:54.008Z,68.04
2023-05-07T00:49:34.445Z,68.24
2023-05-07T00:52:09.484Z,68.31
2023-05-07T00:54:43.924Z,68.61
2023-05-07T00:57:17.947Z,68.64
2023-05-07T00:59:51.846Z,68.25
2023-05-07T01:02:25.255Z,68.20
2023-05-07T01:04:59.575Z,68.26
2023-05-07T01:07:34.714Z,68.43
2023-05-07T01:10:10.449Z,68.45
2023-05-07T01:12:44.923Z,68.27
2023-05-07T01:15:19.105Z,68.44
2023-05-07T01:17:53.065Z,68.43
2023-05-07T01:20:32.966Z,68.54
2023-05-07T01:23:09.598Z,68.60
2023-05-07T01:25:42.757Z,68.79
2023-05-07T01:28:17.172Z,68.72
2023-05-07T01:30:57.031Z,68.54
2023-05-07T01:33:34.307Z,68.44
2023-05-07T01:36:10.239Z,68.67
2023-05-07T01:38:44.891Z,68.92
2023-05-07T01:41:18.633Z,68.91
2023-05-07T01:43:53.200Z,68.96
2023-05-07T01:46:27.485Z,68.91
2023-05-07T01:49:01.328Z,68.90
2023-05-07T01:51:36.116Z,69.03
2023-05-07T01:54:09.754Z,69.06
2023-05-07T01:56:44.762Z,69.24
2023-05-07T01:59:18.883Z,69.26
2023-05-07T02:01:52.409Z,69.35
2023-05-07T02:04:26.155Z,69.27
2023-05-07T02:07:00.710Z,69.37
2023-05-07T02:09:34.735Z,69.56
2023-05-07T02:12:09.185Z,69.50
2023-05-07T02:14:42.758Z,69.71
2023-05-07T02:17:16.525Z,69.57
2023-05-07T02:19:50.123Z,69.45
2023-05-07T02:22:23.436Z,69.57
2023-05-07T02:24:57.278Z,69.52
2023-05-07T02:27:30.849Z,69.50
2023-05-07T02:30:04.442Z,69.60
2023-05-07T02:32:38.394Z,69.65
2023-05-07T02:35:12.895Z,69.59
2023-05-07T02:37:46.871Z,69.54
2023-05-07T02:40:21.594Z,69.51
2023-05-07T02:42:55.342Z,69.69
2023-05-07T02:45:29.443Z,69.61
2023-05-07T02:48:02.837Z,69.54
2023-05-07T02:50:36.794Z,69.55
2023-05-07T02:53:10.568Z,69.69
2023-05-07T02:55:44.334Z,69.80
2023-05-07T02:58:18.072Z,69.77
2023-05-07T03:00:51.583Z,69.75
2023-05-07T03:03:47.429Z,69.76
2023-05-07T03:06:21.236Z,69.67
2023-05-07T03:08:54.908Z,69.69
2023-05-07T03:11:28.380Z,69.54
2023-05-07T03:14:02.140Z,69.65
2023-05-07T03:16:35.722Z,69.95
2023-05-07T03:19:09.226Z,69.87
2023-05-07T03:21:42.730Z,69.77
2023-05-07T03:24:16.728Z,69.69
2023-05-07T03:26:50.289Z,69.80
2023-05-07T03:29:23.807Z,69.71
2023-05-07T03:31:57.484Z,70.01
2023-05-07T03:34:31.341Z,69.87
2023-05-07T03:37:05.446Z,69.81
2023-05-07T03:39:38.958Z,69.91
2023-05-07T03:42:12.846Z,69.86
2023-05-07T03:44:49.852Z,69.71
2023-05-07T03:47:24.025Z,69.56
2023-05-07T03:49:58.258Z,69.61
2023-05-07T03:52:32.156Z,69.54
2023-05-07T03:55:07.374Z,69.80
2023-05-07T03:57:41.771Z,69.99
2023-05-07T04:00:17.744Z,69.77
2023-05-07T04:02:54.753Z,69.98
2023-05-07T04:05:31.707Z,69.95
2023-05-07T04:08:09.029Z,69.88
2023-05-07T04:10:46.417Z,70.01
2023-05-07T04:13:20.296Z,69.96
2023-05-07T04:15:54.008Z,69.97
2023-05-07T04:18:28.213Z,69.49
2023-05-07T04:21:02.112Z,69.53
2023-05-07T04:23:35.930Z,69.44
2023-05-07T04:26:10.252Z,69.53
2023-05-07T04:28:46.964Z,69.68
2023-05-07T04:31:22.872Z,69.84
2023-05-07T04:33:58.734Z,69.63
2023-05-07T04:36:34.487Z,69.66
2023-05-07T04:39:12.016Z,69.61
2023-05-07T04:41:46.567Z,69.64
2023-05-07T04:44:20.403Z,69.74
2023-05-07T04:46:56.149Z,69.82
2023-05-07T04:49:29.581Z,69.73
2023-05-07T04:52:04.732Z,69.78
2023-05-07T04:54:39.218Z,69.77
2023-05-07T04:57:13.017Z,69.54
2023-05-07T04:59:47.137Z,69.42
2023-05-07T05:02:21.040Z,69.55
2023-05-07T05:04:55.308Z,69.53
2023-05-07T05:07:30.284Z,69.61
2023-05-07T05:10:04.498Z,69.43
2023-05-07T05:12:38.240Z,69.30
2023-05-07T05:15:13.655Z,69.19
2023-05-07T05:17:47.471Z,69.13
2023-05-07T05:20:21.707Z,69.05
2023-05-07T05:22:55.460Z,69.20
2023-05-07T05:25:30.053Z,69.01
2023-05-07T05:28:04.392Z,68.88
2023-05-07T05:30:39.030Z,68.57
2023-05-07T05:33:12.832Z,68.49
2023-05-07T05:35:46.334Z,68.18
2023-05-07T05:38:20.570Z,68.21
2023-05-07T05:40:56.539Z,68.18
2023-05-07T05:43:31.328Z,67.19
2023-05-07T05:46:06.031Z,66.72
2023-05-07T05:48:39.708Z,66.65
2023-05-07T05:51:13.667Z,66.16
2023-05-07T05:53:47.134Z,65.81
2023-05-07T05:56:22.577Z,65.76
2023-05-07T05:58:56.365Z,65.74
2023-05-07T06:01:30.319Z,65.64
2023-05-07T06:04:04.404Z,65.63
2023-05-07T06:06:38.005Z,65.41
2023-05-07T06:09:11.927Z,65.27
2023-05-07T06:11:48.920Z,65.24
2023-05-07T06:14:22.821Z,65.05
2023-05-07T06:16:56.908Z,64.99
2023-05-07T06:19:31.174Z,64.88
2023-05-07T06:22:05.371Z,64.91
2023-05-07T06:24:39.235Z,64.91
2023-05-07T06:27:13.613Z,64.48
2023-05-07T06:29:47.602Z,64.18
2023-05-07T06:32:23.583Z,63.83
2023-05-07T06:34:57.444Z,63.68
2023-05-07T06:37:31.449Z,63.59
2023-05-07T06:40:11.847Z,63.32
2023-05-07T06:42:46.273Z,62.89
2023-05-07T06:45:34.746Z,63.39
2023-05-07T06:48:09.444Z,63.02
2023-05-07T06:50:51.387Z,63.06
2023-05-07T06:53:25.300Z,63.44
2023-05-07T06:55:59.417Z,62.98
2023-05-07T06:58:33.385Z,62.24
2023-05-07T07:01:07.950Z,61.90
2023-05-07T07:03:42.383Z,61.75
2023-05-07T07:06:15.803Z,61.88
2023-05-07T07:08:49.992Z,61.88
2023-05-07T07:11:24.185Z,62.01
2023-05-07T07:13:58.055Z,61.75
2023-05-07T07:16:31.513Z,61.52
2023-05-07T07:19:05.773Z,60.83
2023-05-07T07:21:39.606Z,60.53
2023-05-07T07:24:13.080Z,59.68
2023-05-07T07:26:47.014Z,59.47
2023-05-07T07:29:21.336Z,59.48
2023-05-07T07:31:55.453Z,58.94
2023-05-07T07:34:29.019Z,58.27
2023-05-07T07:37:06.738Z,57.98
2023-05-07T07:39:40.859Z,57.92
2023-05-07T07:42:15.068Z,58.13
2023-05-07T07:44:48.535Z,57.92
2023-05-07T07:47:22.454Z,57.03
2023-05-07T07:49:56.066Z,57.15
2023-05-07T07:52:30.291Z,56.84
2023-05-07T07:55:04.610Z,56.34
2023-05-07T07:57:38.193Z,56.15
2023-05-07T08:00:13.931Z,56.60
2023-05-07T08:02:51.521Z,56.14
2023-05-07T08:05:30.790Z,56.26
2023-05-07T08:08:05.807Z,55.90
2023-05-07T08:10:41.114Z,55.54
2023-05-07T08:13:20.173Z,55.34
2023-05-07T08:15:54.093Z,55.37
2023-05-07T08:18:30.662Z,55.92
2023-05-07T08:21:05.562Z,55.45
2023-05-07T08:23:39.526Z,55.90
2023-05-07T08:26:14.234Z,56.11
2023-05-07T08:28:48.310Z,55.32
2023-05-07T08:31:22.198Z,55.54
2023-05-07T08:33:56.395Z,54.19
2023-05-07T08:36:30.260Z,53.64
2023-05-07T08:39:03.997Z,54.33
2023-05-07T08:41:38.865Z,55.67
2023-05-07T08:44:16.554Z,53.84
2023-05-07T08:46:55.465Z,48.94
2023-05-07T08:49:30.151Z,48.04
2023-05-07T08:52:04.185Z,47.23
2023-05-07T08:54:39.702Z,46.16
2023-05-07T08:57:14.477Z,44.41
2023-05-07T08:59:48.432Z,44.20
2023-05-07T09:02:22.807Z,44.70
2023-05-07T09:04:57.048Z,44.58
2023-05-07T09:07:31.241Z,45.67
2023-05-07T09:10:08.956Z,45.53
2023-05-07T09:12:43.191Z,45.19
2023-05-07T09:15:17.810Z,44.78
2023-05-07T09:17:52.149Z,45.52
2023-05-07T09:20:26.272Z,46.47
2023-05-07T09:23:01.594Z,46.73
2023-05-07T09:25:37.678Z,46.40
2023-05-07T09:28:17.075Z,46.61
2023-05-07T09:30:51.993Z,46.86
2023-05-07T09:33:29.856Z,46.49
2023-05-07T09:36:07.180Z,45.38
2023-05-07T09:38:42.794Z,44.85
2023-05-07T09:41:17.246Z,45.26
2023-05-07T09:44:01.726Z,45.60
2023-05-07T09:46:39.131Z,46.25
2023-05-07T09:49:26.288Z,46.06
2023-05-07T09:52:10.244Z,42.81
2023-05-07T09:54:48.544Z,42.09
2023-05-07T09:57:25.454Z,41.69
2023-05-07T10:00:05.769Z,41.32
2023-05-07T10:02:49.805Z,41.56
2023-05-07T10:05:26.624Z,42.31
2023-05-07T10:08:04.563Z,42.98
2023-05-07T10:10:40.241Z,42.58
2023-05-07T10:13:16.638Z,42.59
2023-05-07T10:15:54.697Z,42.90
2023-05-07T10:18:34.450Z,43.67
2023-05-07T10:21:21.261Z,43.46
2023-05-07T10:24:03.017Z,42.50
2023-05-07T10:26:39.125Z,42.32
2023-05-07T10:29:25.501Z,43.32
2023-05-07T10:32:10.397Z,43.94
2023-05-07T10:34:48.099Z,44.53
2023-05-07T10:37:23.683Z,44.53
2023-05-07T10:39:58.988Z,44.81
2023-05-07T10:42:33.148Z,44.28
2023-05-07T10:45:18.148Z,43.52
2023-05-07T10:51:24.549Z,43.58
2023-05-07T10:54:29.910Z,43.52
2023-05-07T10:57:38.381Z,44.19
2023-05-07T11:00:43.245Z,44.21
2023-05-07T11:03:20.245Z,43.92
2023-05-07T11:06:19.590Z,43.86
2023-05-07T11:09:08.799Z,43.75
2023-05-07T11:11:53.262Z,44.24
2023-05-07T11:14:53.109Z,43.85
2023-05-07T11:17:36.421Z,44.01
2023-05-07T11:20:14.100Z,44.59
2023-05-07T11:22:58.367Z,44.74
2023-05-07T11:25:42.479Z,45.82
2023-05-07T11:28:25.249Z,45.10
2023-05-07T11:31:09.268Z,44.54
2023-05-07T11:33:43.520Z,42.54
2023-05-07T11:36:20.624Z,41.23
2023-05-07T11:38:54.736Z,41.12
2023-05-07T11:41:38.819Z,40.88
2023-05-07T11:44:12.486Z,40.75
2023-05-07T11:46:47.920Z,40.66
2023-05-07T11:49:21.819Z,40.95
2023-05-07T11:51:56.339Z,40.99
2023-05-07T11:54:37.592Z,40.90
2023-05-07T11:57:17.372Z,40.93
2023-05-07T11:59:55.568Z,40.81
2023-05-07T12:02:29.597Z,40.93
2023-05-07T12:05:05.415Z,40.93
2023-05-07T12:07:39.457Z,40.24
2023-05-07T12:10:16.209Z,39.84
2023-05-07T12:12:51.736Z,39.57
2023-05-07T12:15:29.375Z,39.10
2023-05-07T12:18:04.009Z,38.08
2023-05-07T12:20:38.823Z,38.21
2023-05-07T12:23:13.170Z,38.16
2023-05-07T12:25:49.199Z,38.15
2023-05-07T12:28:23.633Z,38.79
2023-05-07T12:30:58.077Z,39.17
2023-05-07T12:33:33.047Z,39.47
2023-05-07T12:36:09.786Z,39.79
2023-05-07T12:38:43.724Z,40.24
2023-05-07T12:41:18.559Z,40.34
2023-05-07T12:43:52.444Z,40.23
2023-05-07T12:46:26.116Z,39.92
2023-05-07T12:48:59.659Z,40.05
2023-05-07T12:51:33.983Z,40.20
2023-05-07T12:54:07.904Z,40.70
2023-05-07T12:56:42.475Z,40.12
2023-05-07T12:59:16.216Z,39.56
2023-05-07T13:01:50.694Z,39.63
2023-05-07T13:04:27.293Z,39.79
2023-05-07T13:07:01.497Z,40.41
2023-05-07T13:09:35.502Z,40.26
2023-05-07T13:12:09.807Z,38.84
2023-05-07T13:14:43.486Z,38.61
2023-05-07T13:17:17.176Z,39.03
2023-05-07T13:19:51.412Z,38.85
2023-05-07T13:22:25.053Z,38.81
2023-05-07T13:24:58.765Z,39.10
2023-05-07T13:27:32.762Z,38.54
2023-05-07T13:30:06.790Z,39.05
2023-05-07T13:32:40.629Z,39.58
2023-05-07T13:35:14.462Z,39.26
2023-05-07T13:37:49.604Z,39.32
2023-05-07T13:40:23.261Z,39.48
2023-05-07T13:42:59.842Z,39.62
2023-05-07T13:45:33.472Z,39.82
2023-05-07T13:48:07.806Z,39.90
2023-05-07T13:50:41.351Z,40.10
2023-05-07T13:53:17.097Z,40.24
2023-05-07T13:55:51.142Z,40.04
2023-05-07T13:58:25.910Z,40.09
2023-05-07T14:00:59.500Z,40.07
2023-05-07T14:03:34.384Z,39.68
2023-05-07T14:06:08.947Z,39.91
2023-05-07T14:08:42.605Z,40.50
2023-05-07T14:11:16.121Z,40.42
2023-05-07T14:13:49.846Z,40.47
2023-05-07T14:16:23.552Z,40.63
2023-05-07T14:18:58.469Z,41.02
2023-05-07T14:21:33.418Z,40.66
2023-05-07T14:24:08.626Z,40.54
2023-05-07T14:26:42.210Z,41.05
2023-05-07T14:29:17.041Z,40.90
2023-05-07T14:31:50.555Z,40.91
2023-05-07T14:34:24.054Z,40.90
2023-05-07T14:36:58.062Z,40.63
2023-05-07T14:39:32.304Z,41.13
2023-05-07T14:42:06.068Z,41.21
2023-05-07T14:44:41.983Z,41.18
2023-05-07T14:47:18.340Z,40.71
2023-05-07T14:49:54.412Z,40.93
2023-05-07T14:52:28.067Z,40.80
2023-05-07T14:55:01.580Z,41.36
2023-05-07T14:57:36.449Z,41.57
2023-05-07T15:00:12.610Z,42.05
2023-05-07T15:02:46.530Z,41.96
2023-05-07T15:05:21.280Z,41.73
2023-05-07T15:07:57.553Z,42.12
2023-05-07T15:10:31.582Z,41.91
2023-05-07T15:13:05.901Z,41.86
2023-05-07T15:15:39.650Z,41.86
2023-05-07T15:18:13.514Z,41.78
2023-05-07T15:20:47.601Z,42.01
2023-05-07T15:23:21.372Z,41.61
2023-05-07T15:25:56.453Z,41.58
2023-05-07T15:28:30.064Z,41.65
2023-05-07T15:31:04.674Z,41.67
2023-05-07T15:33:38.291Z,41.19
2023-05-07T15:36:12.699Z,41.21
2023-05-07T15:38:46.621Z,41.19
2023-05-07T15:41:21.822Z,41.36
2023-05-07T15:43:56.619Z,41.39
2023-05-07T15:46:30.304Z,41.47
2023-05-07T15:49:06.523Z,41.61
2023-05-07T15:51:40.413Z,41.80
2023-05-07T15:54:14.757Z,42.06
2023-05-07T15:56:48.804Z,42.17
2023-05-07T15:59:22.953Z,42.22
2023-05-07T16:01:56.533Z,42.11
2023-05-07T16:04:30.692Z,41.92
2023-05-07T16:07:04.295Z,42.03
2023-05-07T16:09:38.407Z,41.97
2023-05-07T16:12:12.216Z,41.99
2023-05-07T16:14:46.060Z,42.34
2023-05-07T16:17:19.748Z,42.55
2023-05-07T16:19:53.923Z,42.55
2023-05-07T16:22:29.741Z,42.45
2023-05-07T16:25:05.167Z,42.54
2023-05-07T16:27:39.098Z,42.82
2023-05-07T16:30:14.376Z,42.69
2023-05-07T16:32:48.089Z,42.61
2023-05-07T16:35:21.669Z,42.63
2023-05-07T16:37:55.366Z,42.71
2023-05-07T16:40:29.746Z,42.78
2023-05-07T16:43:04.320Z,42.73
2023-05-07T16:45:37.928Z,42.83
2023-05-07T16:48:12.365Z,43.01
2023-05-07T16:50:46.220Z,42.98
2023-05-07T16:53:20.828Z,42.97
2023-05-07T16:55:56.807Z,42.99
2023-05-07T16:58:30.647Z,43.12
2023-05-07T17:01:05.418Z,43.36
2023-05-07T17:03:39.280Z,43.28
2023-05-07T17:06:15.502Z,43.15
2023-05-07T17:08:48.856Z,43.35
2023-05-07T17:11:22.892Z,43.36
2023-05-07T17:13:56.622Z,43.48
2023-05-07T17:16:30.348Z,43.51
2023-05-07T17:19:04.560Z,43.67
2023-05-07T17:21:38.576Z,43.69
2023-05-07T17:24:12.707Z,43.83
2023-05-07T17:26:46.068Z,44.10
2023-05-07T17:29:20.298Z,44.29
2023-05-07T17:31:54.103Z,44.35
2023-05-07T17:34:27.761Z,44.50
2023-05-07T17:37:01.966Z,44.72
2023-05-07T17:39:35.506Z,44.71
2023-05-07T17:42:09.571Z,45.00
2023-05-07T17:44:43.531Z,45.22
2023-05-07T17:47:16.971Z,45.49
2023-05-07T17:49:50.612Z,45.69
2023-05-07T17:52:24.540Z,45.92
2023-05-07T17:54:58.320Z,45.98
2023-05-07T17:57:32.632Z,46.24
2023-05-07T18:00:10.394Z,46.65
2023-05-07T18:02:45.233Z,46.60
2023-05-07T18:05:20.273Z,46.83
2023-05-07T18:07:54.162Z,47.02
2023-05-07T18:10:27.964Z,47.30
2023-05-07T18:13:01.612Z,47.45
2023-05-07T18:15:35.445Z,47.75
2023-05-07T18:18:10.381Z,47.77
2023-05-07T18:20:44.093Z,47.93
2023-05-07T18:23:17.944Z,48.16
2023-05-07T18:25:51.931Z,48.32
2023-05-07T18:28:25.694Z,48.43
2023-05-07T18:30:59.444Z,48.54
2023-05-07T18:33:33.129Z,48.72
2023-05-07T18:36:07.458Z,48.93
2023-05-07T18:38:43.459Z,49.01
2023-05-07T18:41:18.846Z,49.30
2023-05-07T18:43:54.164Z,49.34
2023-05-07T18:46:30.634Z,49.54
2023-05-07T18:49:05.051Z,49.77
2023-05-07T18:51:39.438Z,49.85
2023-05-07T18:54:13.844Z,50.06
2023-05-07T18:56:48.959Z,50.08
2023-05-07T18:59:22.923Z,50.24
2023-05-07T19:01:57.667Z,50.31
2023-05-07T19:04:31.585Z,50.34
2023-05-07T19:07:06.956Z,50.52
2023-05-07T19:09:47.945Z,50.56
2023-05-07T19:12:25.586Z,50.76
2023-05-07T19:15:00.955Z,50.96
2023-05-07T19:17:35.869Z,51.05
2023-05-07T19:20:12.136Z,51.15
2023-05-07T19:22:47.273Z,51.46
2023-05-07T19:25:21.992Z,51.64
2023-05-07T19:27:57.017Z,51.66
2023-05-07T19:30:31.517Z,51.80
2023-05-07T19:33:05.683Z,51.95
2023-05-07T19:35:40.424Z,52.19
2023-05-07T19:38:14.450Z,52.41
2023-05-07T19:40:49.551Z,52.69
2023-05-07T19:43:23.971Z,52.96
2023-05-07T19:45:58.467Z,53.04
2023-05-07T19:48:34.150Z,53.27
2023-05-07T19:51:08.191Z,53.48
2023-05-07T19:53:43.432Z,53.63
2023-05-07T19:56:17.738Z,53.95
2023-05-07T19:58:53.376Z,54.08
2023-05-07T20:01:29.181Z,54.14
2023-05-07T20:04:03.279Z,54.22
2023-05-07T20:06:39.865Z,54.43
2023-05-07T20:09:14.470Z,54.60
2023-05-07T20:11:49.209Z,54.79
2023-05-07T20:14:22.977Z,54.84
2023-05-07T20:16:56.398Z,54.90
2023-05-07T20:19:30.234Z,55.00
2023-05-07T20:22:03.671Z,55.29
2023-05-07T20:24:41.309Z,55.38
2023-05-07T20:27:16.325Z,55.41
2023-05-07T20:29:50.167Z,55.49
2023-05-07T20:32:24.400Z,55.61
2023-05-07T20:34:58.002Z,55.70
2023-05-07T20:37:31.453Z,55.87
2023-05-07T20:40:05.447Z,56.05
2023-05-07T20:42:39.191Z,56.23
2023-05-07T20:45:14.532Z,56.38
2023-05-07T20:47:48.303Z,56.42
2023-05-07T20:50:23.709Z,56.46
2023-05-07T20:52:57.756Z,56.53
2023-05-07T20:55:31.858Z,56.71
2023-05-07T20:58:05.326Z,56.89
2023-05-07T21:00:39.694Z,56.97
2023-05-07T21:03:13.609Z,57.19
2023-05-07T21:05:52.174Z,57.21
2023-05-07T21:08:26.323Z,57.27
2023-05-07T21:10:59.918Z,57.33
2023-05-07T21:13:33.343Z,57.46
2023-05-07T21:16:07.562Z,57.41
2023-05-07T21:18:41.030Z,57.55
2023-05-07T21:21:16.769Z,57.65
2023-05-07T21:23:50.623Z,57.71
2023-05-07T21:26:24.398Z,57.84
2023-05-07T21:28:58.332Z,58.00
2023-05-07T21:31:31.964Z,58.13
2023-05-07T21:34:08.197Z,58.04
2023-05-07T21:36:42.161Z,57.84
2023-05-07T21:39:15.586Z,58.09
2023-05-07T21:41:49.366Z,58.37
2023-05-07T21:44:23.287Z,58.21
2023-05-07T21:46:57.116Z,57.97
2023-05-07T21:49:30.548Z,57.87
2023-05-07T21:52:03.699Z,58.13
2023-05-07T21:54:37.010Z,58.16
2023-05-07T21:57:10.805Z,58.37
2023-05-07T21:59:44.078Z,58.51
2023-05-07T22:02:17.256Z,58.49
2023-05-07T22:04:51.300Z,58.54
2023-05-07T22:07:27.362Z,58.75
2023-05-07T22:10:01.287Z,58.78
2023-05-07T22:12:35.695Z,58.71
2023-05-07T22:15:11.309Z,58.60
2023-05-07T22:17:45.183Z,58.68
2023-05-07T22:20:18.981Z,58.80
2023-05-07T22:22:54.330Z,58.74
2023-05-07T22:25:28.078Z,58.88
2023-05-07T22:28:02.240Z,58.88
2023-05-07T22:30:35.671Z,59.08
2023-05-07T22:33:08.975Z,59.10
2023-05-07T22:35:42.864Z,59.07
2023-05-07T22:38:16.555Z,59.26
2023-05-07T22:40:50.239Z,59.50
2023-05-07T22:43:23.838Z,59.52
2023-05-07T22:46:03.087Z,59.68
2023-05-07T22:48:36.715Z,59.55
2023-05-07T22:51:14.008Z,59.75
2023-05-07T22:53:48.069Z,59.82
2023-05-07T22:56:21.354Z,59.79
2023-05-07T22:58:55.030Z,59.72
2023-05-07T23:01:28.497Z,59.92
2023-05-07T23:04:02.228Z,59.97
2023-05-07T23:06:36.018Z,60.10
2023-05-07T23:09:10.071Z,60.10
2023-05-07T23:11:43.588Z,60.19
2023-05-07T23:14:17.177Z,60.30
2023-05-07T23:16:51.353Z,60.28
2023-05-07T23:19:25.108Z,60.44
2023-05-07T23:21:58.889Z,60.36
2023-05-07T23:24:32.300Z,60.39
2023-05-07T23:27:08.151Z,60.49
2023-05-07T23:29:41.587Z,60.61
2023-05-07T23:32:15.042Z,60.90
2023-05-07T23:34:50.866Z,60.93
2023-05-07T23:37:24.698Z,60.94
2023-05-07T23:39:58.697Z,61.04
2023-05-07T23:42:32.664Z,61.12
2023-05-07T23:45:07.255Z,61.26
2023-05-07T23:47:41.368Z,61.31
2023-05-07T23:50:15.554Z,61.35
2023-05-07T23:52:49.484Z,61.45
2023-05-07T23:55:23.135Z,61.64
2023-05-07T23:57:56.514Z,61.64
